createdAt,value
2018-04-30T00:01:38.688Z,8.70
2018-04-30T00:03:42.048Z,10.47
2018-04-30T00:05:44.654Z,12.43
2018-04-30T00:07:47.999Z,8.37
2018-04-30T00:09:51.396Z,10.73
2018-04-30T00:11:54.757Z,12.27
2018-04-30T00:13:57.336Z,10.63
2018-04-30T00:15:59.949Z,10.03
2018-04-30T00:18:02.544Z,8.43
2018-04-30T00:20:05.172Z,9.27
2018-04-30T00:22:07.788Z,10.67
2018-04-30T00:24:10.379Z,11.97
2018-04-30T00:26:13.752Z,12.00
2018-04-30T00:28:16.351Z,10.13
2018-04-30T00:30:19.758Z,10.33
2018-04-30T00:32:22.341Z,9.57
2018-04-30T00:34:24.936Z,13.63
2018-04-30T00:36:27.547Z,9.53
2018-04-30T00:38:30.129Z,10.07
2018-04-30T00:40:33.590Z,9.07
2018-04-30T00:42:36.161Z,7.73
2018-04-30T00:44:38.784Z,10.07
2018-04-30T00:46:41.396Z,12.10
2018-04-30T00:48:43.991Z,7.40
2018-04-30T00:50:46.588Z,9.03
2018-04-30T00:52:49.197Z,11.27
2018-04-30T00:55:00.586Z,13.07
2018-04-30T00:57:03.200Z,9.47
2018-04-30T00:59:05.792Z,13.17
2018-04-30T01:01:08.388Z,8.67
2018-04-30T01:03:10.972Z,8.37
2018-04-30T01:05:13.549Z,11.33
2018-04-30T01:07:16.155Z,6.87
2018-04-30T01:09:19.564Z,8.83
2018-04-30T01:11:22.159Z,9.03
2018-04-30T01:13:25.559Z,10.33
2018-04-30T01:15:28.918Z,11.60
2018-04-30T01:17:31.567Z,8.77
2018-04-30T01:19:34.200Z,9.13
2018-04-30T01:21:37.584Z,8.90
2018-04-30T01:23:40.175Z,13.07
2018-04-30T01:25:43.532Z,17.67
2018-04-30T01:27:46.149Z,10.03
2018-04-30T01:29:48.779Z,10.60
2018-04-30T01:31:51.401Z,12.23
2018-04-30T01:33:53.987Z,8.37
2018-04-30T01:35:56.577Z,12.60
2018-04-30T01:37:59.184Z,7.57
2018-04-30T01:40:01.778Z,9.67
2018-04-30T01:42:05.221Z,12.10
2018-04-30T01:44:07.924Z,11.43
2018-04-30T01:46:10.529Z,15.70
2018-04-30T01:48:13.888Z,6.47
2018-04-30T01:50:16.509Z,7.60
2018-04-30T01:52:19.129Z,14.87
2018-04-30T01:54:21.721Z,10.43
2018-04-30T01:56:24.305Z,11.27
2018-04-30T01:58:27.702Z,10.33
2018-04-30T02:00:31.087Z,9.70
2018-04-30T02:02:33.683Z,4.37
2018-04-30T02:04:37.028Z,9.97
2018-04-30T02:06:39.624Z,12.73
2018-04-30T02:08:42.240Z,7.83
2018-04-30T02:10:44.828Z,9.23
2018-04-30T02:12:47.448Z,15.37
2018-04-30T02:14:50.130Z,8.43
2018-04-30T02:16:52.903Z,6.97
2018-04-30T02:18:55.488Z,12.77
2018-04-30T02:20:58.863Z,9.00
2018-04-30T02:23:01.473Z,9.27
2018-04-30T02:25:04.054Z,6.53
2018-04-30T02:27:06.663Z,7.13
2018-04-30T02:29:09.252Z,9.30
2018-04-30T02:31:11.847Z,5.67
2018-04-30T02:33:15.248Z,5.27
2018-04-30T02:35:18.621Z,4.40
2018-04-30T02:37:21.218Z,5.43
2018-04-30T02:39:24.564Z,3.03
2018-04-30T02:41:27.174Z,9.63
2018-04-30T02:43:29.776Z,1.33
2018-04-30T02:45:33.233Z,8.73
2018-04-30T02:47:35.828Z,1.53
2018-04-30T02:49:39.174Z,6.77
2018-04-30T02:51:41.769Z,3.23
2018-04-30T02:53:44.384Z,1.73
2018-04-30T02:55:46.961Z,1.73
2018-04-30T02:57:49.565Z,2.87
2018-04-30T02:59:52.147Z,6.20
2018-04-30T03:01:54.728Z,3.70
2018-04-30T03:03:57.331Z,4.80
2018-04-30T03:06:00.724Z,3.50
2018-04-30T03:08:04.125Z,2.27
2018-04-30T03:10:07.471Z,3.67
2018-04-30T03:12:10.181Z,1.17
2018-04-30T03:14:13.576Z,1.37
2018-04-30T03:16:16.932Z,2.93
2018-04-30T03:18:19.537Z,2.37
2018-04-30T03:20:22.128Z,0.67
2018-04-30T03:22:25.537Z,4.47
2018-04-30T03:24:28.151Z,1.33
2018-04-30T03:26:30.726Z,2.93
2018-04-30T03:28:33.336Z,2.13
2018-04-30T03:30:36.684Z,1.17
2018-04-30T03:32:39.271Z,2.10
2018-04-30T03:34:41.864Z,3.53
2018-04-30T03:36:44.444Z,3.63
2018-04-30T03:38:47.815Z,5.00
2018-04-30T03:40:50.415Z,1.77
2018-04-30T03:42:53.761Z,1.07
2018-04-30T03:44:57.123Z,2.20
2018-04-30T03:46:59.697Z,2.33
2018-04-30T03:49:02.303Z,3.47
2018-04-30T03:51:05.000Z,3.03
2018-04-30T03:53:07.584Z,3.33
2018-04-30T03:55:10.197Z,2.20
2018-04-30T03:57:12.779Z,0.33
2018-04-30T03:59:15.387Z,1.60
2018-04-30T04:01:29.816Z,2.47
2018-04-30T04:03:44.120Z,2.73
2018-04-30T04:05:59.208Z,6.20
2018-04-30T04:08:01.812Z,3.70
2018-04-30T04:10:04.417Z,2.53
2018-04-30T04:12:07.028Z,2.10
2018-04-30T04:14:09.630Z,2.23
2018-04-30T04:16:12.208Z,1.30
2018-04-30T04:18:14.793Z,1.37
2018-04-30T04:20:17.412Z,1.67
2018-04-30T04:22:20.771Z,1.40
2018-04-30T04:24:23.392Z,5.50
2018-04-30T04:26:25.996Z,0.80
2018-04-30T04:28:28.596Z,1.10
2018-04-30T04:30:31.212Z,0.60
2018-04-30T04:32:33.792Z,0.80
2018-04-30T04:34:37.192Z,1.70
2018-04-30T04:36:39.787Z,2.53
2018-04-30T04:38:42.376Z,1.70
2018-04-30T04:40:44.995Z,2.17
2018-04-30T04:42:48.350Z,0.83
2018-04-30T04:44:50.954Z,3.20
2018-04-30T04:46:54.296Z,1.33
2018-04-30T04:48:56.883Z,0.43
2018-04-30T04:50:59.484Z,1.00
2018-04-30T04:53:02.068Z,2.03
2018-04-30T04:55:05.537Z,0.87
2018-04-30T04:57:08.111Z,1.13
2018-04-30T04:59:10.741Z,1.37
2018-04-30T05:01:13.328Z,1.47
2018-04-30T05:03:15.924Z,1.43
2018-04-30T05:05:18.563Z,5.10
2018-04-30T05:07:21.144Z,0.97
2018-04-30T05:09:23.752Z,4.50
2018-04-30T05:11:26.330Z,3.60
2018-04-30T05:13:28.918Z,4.60
2018-04-30T05:15:31.753Z,1.83
2018-04-30T05:17:34.346Z,4.50
2018-04-30T05:19:36.952Z,2.17
2018-04-30T05:21:40.311Z,0.70
2018-04-30T05:23:42.896Z,3.00
2018-04-30T05:25:45.505Z,2.23
2018-04-30T05:27:48.104Z,2.77
2018-04-30T05:29:50.748Z,2.33
2018-04-30T05:31:54.096Z,0.90
2018-04-30T05:33:56.721Z,2.50
2018-04-30T05:36:00.097Z,0.93
2018-04-30T05:38:03.449Z,1.73
2018-04-30T05:40:06.057Z,1.60
2018-04-30T05:42:08.623Z,1.30
2018-04-30T05:44:11.203Z,1.93
2018-04-30T05:46:14.585Z,2.83
2018-04-30T05:48:17.172Z,2.27
2018-04-30T05:50:19.823Z,0.97
2018-04-30T05:52:22.416Z,8.20
2018-04-30T05:54:25.004Z,1.53
2018-04-30T05:56:28.363Z,1.17
2018-04-30T05:58:31.715Z,1.47
2018-04-30T06:00:34.361Z,1.00
2018-04-30T06:02:37.745Z,3.43
2018-04-30T06:04:40.336Z,2.10
2018-04-30T06:06:43.712Z,4.50
2018-04-30T06:08:46.288Z,3.03
2018-04-30T06:10:49.662Z,2.10
2018-04-30T06:12:52.364Z,2.13
2018-04-30T06:14:55.715Z,4.47
2018-04-30T06:16:58.320Z,3.33
2018-04-30T06:19:00.928Z,2.17
2018-04-30T06:21:03.556Z,1.80
2018-04-30T06:23:06.196Z,1.70
2018-04-30T06:25:08.776Z,1.40
2018-04-30T06:27:11.380Z,2.30
2018-04-30T06:29:13.972Z,2.37
2018-04-30T06:31:16.592Z,1.80
2018-04-30T06:33:19.172Z,1.73
2018-04-30T06:35:21.760Z,2.57
2018-04-30T06:37:24.384Z,1.07
2018-04-30T06:39:26.984Z,2.77
2018-04-30T06:41:29.584Z,2.03
2018-04-30T06:43:32.960Z,2.83
2018-04-30T06:45:35.565Z,2.80
2018-04-30T06:47:38.202Z,1.40
2018-04-30T06:49:40.788Z,2.20
2018-04-30T06:51:43.391Z,1.40
2018-04-30T06:53:46.027Z,1.90
2018-04-30T06:55:48.604Z,1.70
2018-04-30T06:57:51.199Z,2.10
2018-04-30T06:59:53.803Z,1.20
2018-04-30T07:01:56.391Z,1.20
2018-04-30T07:03:59.763Z,1.73
2018-04-30T07:06:02.357Z,4.30
2018-04-30T07:08:05.717Z,2.70
2018-04-30T07:10:08.329Z,2.40
2018-04-30T07:12:11.712Z,3.30
2018-04-30T07:14:15.088Z,2.03
2018-04-30T07:16:17.711Z,2.60
2018-04-30T07:18:20.299Z,1.50
2018-04-30T07:20:22.930Z,2.43
2018-04-30T07:22:26.315Z,2.17
2018-04-30T07:24:29.712Z,2.57
2018-04-30T07:26:33.143Z,1.30
2018-04-30T07:28:35.733Z,3.43
2018-04-30T07:30:38.324Z,1.80
2018-04-30T07:32:40.961Z,1.50
2018-04-30T07:34:43.534Z,3.53
2018-04-30T07:36:46.151Z,1.50
2018-04-30T07:38:48.736Z,3.37
2018-04-30T07:40:51.341Z,3.67
2018-04-30T07:42:53.952Z,1.60
2018-04-30T07:44:56.557Z,1.47
2018-04-30T07:46:59.173Z,1.50
2018-04-30T07:49:01.776Z,2.27
2018-04-30T07:51:04.396Z,1.47
2018-04-30T07:53:07.780Z,1.40
2018-04-30T07:55:10.364Z,2.53
2018-04-30T07:57:13.759Z,1.80
2018-04-30T07:59:17.146Z,1.93
2018-04-30T08:01:20.551Z,2.40
2018-04-30T08:03:23.941Z,1.60
2018-04-30T08:05:27.293Z,1.53
2018-04-30T08:07:29.911Z,3.87
2018-04-30T08:09:33.643Z,2.10
2018-04-30T08:11:36.284Z,2.70
2018-04-30T08:13:39.680Z,1.53
2018-04-30T08:15:43.043Z,2.63
2018-04-30T08:17:45.659Z,2.40
2018-04-30T08:19:48.239Z,1.67
2018-04-30T08:21:50.824Z,2.33
2018-04-30T08:23:53.471Z,2.03
2018-04-30T08:25:56.828Z,3.00
2018-04-30T08:27:59.460Z,1.87
2018-04-30T08:30:02.124Z,4.53
2018-04-30T08:32:04.702Z,2.47
2018-04-30T08:34:07.334Z,1.37
2018-04-30T08:36:09.918Z,2.77
2018-04-30T08:38:13.299Z,2.97
2018-04-30T08:40:15.944Z,2.80
2018-04-30T08:42:18.548Z,2.73
2018-04-30T08:44:21.164Z,2.63
2018-04-30T08:46:23.747Z,1.80
2018-04-30T08:48:26.376Z,2.30
2018-04-30T08:50:28.983Z,1.73
2018-04-30T08:52:31.561Z,3.10
2018-04-30T08:54:34.179Z,2.40
2018-04-30T08:56:37.561Z,1.47
2018-04-30T08:58:40.184Z,1.37
2018-04-30T09:00:43.580Z,1.00
2018-04-30T09:02:46.955Z,2.03
2018-04-30T09:04:49.545Z,2.23
2018-04-30T09:06:52.923Z,0.80
2018-04-30T09:08:55.554Z,1.20
2018-04-30T09:10:58.152Z,2.27
2018-04-30T09:13:00.749Z,1.23
2018-04-30T09:15:03.475Z,0.50
2018-04-30T09:17:05.992Z,1.10
2018-04-30T09:19:08.625Z,1.13
2018-04-30T09:21:11.247Z,0.80
2018-04-30T09:23:13.835Z,0.60
2018-04-30T09:25:17.280Z,1.20
2018-04-30T09:27:19.920Z,1.63
2018-04-30T09:29:22.525Z,2.17
2018-04-30T09:31:25.144Z,1.80
2018-04-30T09:33:28.499Z,1.03
2018-04-30T09:35:31.129Z,0.50
2018-04-30T09:37:33.713Z,0.93
2018-04-30T09:39:36.320Z,0.57
2018-04-30T09:41:38.891Z,2.03
2018-04-30T09:43:41.804Z,1.03
2018-04-30T09:45:44.386Z,0.57
2018-04-30T09:47:47.772Z,1.03
2018-04-30T09:49:50.400Z,0.50
2018-04-30T09:51:52.950Z,0.57
2018-04-30T09:53:55.557Z,0.60
2018-04-30T09:55:58.148Z,3.03
2018-04-30T09:58:00.765Z,0.50
2018-04-30T10:00:04.151Z,2.00
2018-04-30T10:02:07.511Z,1.57
2018-04-30T10:04:10.202Z,4.03
2018-04-30T10:06:12.800Z,1.70
2018-04-30T10:08:16.151Z,2.77
2018-04-30T10:10:18.755Z,1.60
2018-04-30T10:12:22.116Z,0.80
2018-04-30T10:14:24.712Z,0.83
2018-04-30T10:16:27.315Z,0.67
2018-04-30T10:18:29.935Z,0.50
2018-04-30T10:20:32.532Z,0.60
2018-04-30T10:22:35.195Z,0.73
2018-04-30T10:24:37.805Z,2.00
2018-04-30T10:26:41.178Z,0.60
2018-04-30T10:28:43.758Z,0.70
2018-04-30T10:30:47.124Z,1.10
2018-04-30T10:32:49.771Z,0.50
2018-04-30T10:34:52.534Z,0.80
2018-04-30T10:36:55.148Z,2.43
2018-04-30T10:38:57.851Z,0.40
2018-04-30T10:41:01.248Z,0.70
2018-04-30T10:43:03.852Z,0.60
2018-04-30T10:45:06.540Z,2.97
2018-04-30T10:47:12.502Z,2.47
2018-04-30T10:49:15.264Z,1.27
2018-04-30T10:51:17.866Z,1.57
2018-04-30T10:53:20.472Z,1.33
2018-04-30T10:55:23.313Z,3.07
2018-04-30T10:57:25.907Z,3.17
2018-04-30T10:59:29.220Z,0.60
2018-04-30T11:01:32.596Z,3.63
2018-04-30T11:03:35.187Z,0.60
2018-04-30T11:05:40.089Z,1.10
2018-04-30T11:07:43.231Z,2.17
2018-04-30T11:09:46.057Z,0.40
2018-04-30T11:11:49.096Z,1.20
2018-04-30T11:13:51.694Z,2.23
2018-04-30T11:15:55.125Z,3.17
2018-04-30T11:17:57.707Z,0.63
2018-04-30T11:20:01.072Z,2.30
2018-04-30T11:22:03.720Z,2.53
2018-04-30T11:24:06.363Z,0.53
2018-04-30T11:26:08.959Z,2.80
2018-04-30T11:28:11.816Z,2.47
2018-04-30T11:30:15.469Z,0.70
2018-04-30T11:32:18.093Z,3.83
2018-04-30T11:34:22.392Z,3.87
2018-04-30T11:36:25.177Z,1.07
2018-04-30T11:38:27.795Z,2.27
2018-04-30T11:40:30.411Z,0.60
2018-04-30T11:42:33.826Z,1.80
2018-04-30T11:44:37.378Z,1.10
2018-04-30T11:46:40.000Z,0.90
2018-04-30T11:48:42.598Z,3.23
2018-04-30T11:50:45.224Z,2.30
2018-04-30T11:52:48.619Z,2.30
2018-04-30T11:54:51.988Z,3.90
2018-04-30T11:56:54.637Z,1.90
2018-04-30T11:58:57.292Z,2.13
2018-04-30T12:00:59.880Z,2.30
2018-04-30T12:03:02.508Z,1.93
2018-04-30T12:05:05.175Z,0.70
2018-04-30T12:07:07.796Z,1.93
2018-04-30T12:09:10.402Z,0.53
2018-04-30T12:11:13.043Z,1.30
2018-04-30T12:13:15.663Z,0.70
2018-04-30T12:15:18.268Z,3.93
2018-04-30T12:17:21.658Z,4.87
2018-04-30T12:19:25.021Z,0.80
2018-04-30T12:21:27.663Z,3.47
2018-04-30T12:23:30.265Z,1.30
2018-04-30T12:25:32.855Z,3.10
2018-04-30T12:27:35.473Z,4.10
2018-04-30T12:29:38.170Z,3.50
2018-04-30T12:31:40.780Z,6.63
2018-04-30T12:33:43.404Z,0.70
2018-04-30T12:35:46.009Z,1.30
2018-04-30T12:37:48.616Z,1.20
2018-04-30T12:39:51.263Z,1.33
2018-04-30T12:41:53.879Z,2.63
2018-04-30T12:43:57.268Z,2.27
2018-04-30T12:46:00.623Z,2.87
2018-04-30T12:48:03.299Z,3.30
2018-04-30T12:50:05.891Z,5.63
2018-04-30T12:52:08.515Z,0.70
2018-04-30T12:54:11.100Z,3.27
2018-04-30T12:56:13.730Z,2.60
2018-04-30T12:58:16.356Z,6.33
2018-04-30T13:00:18.960Z,0.87
2018-04-30T13:02:21.585Z,4.47
2018-04-30T13:04:24.190Z,1.33
2018-04-30T13:06:26.812Z,3.13
2018-04-30T13:08:29.465Z,2.53
2018-04-30T13:10:32.836Z,1.07
2018-04-30T13:12:35.503Z,2.43
2018-04-30T13:14:38.880Z,1.77
2018-04-30T13:16:41.479Z,1.17
2018-04-30T13:18:44.111Z,3.33
2018-04-30T13:20:46.699Z,1.40
2018-04-30T13:22:49.311Z,2.00
2018-04-30T13:24:51.980Z,1.43
2018-04-30T13:26:54.573Z,2.10
2018-04-30T13:28:57.188Z,1.60
2018-04-30T13:30:59.924Z,1.87
2018-04-30T13:33:02.516Z,0.83
2018-04-30T13:35:05.892Z,1.03
2018-04-30T13:37:08.533Z,1.33
2018-04-30T13:39:11.136Z,2.03
2018-04-30T13:41:13.728Z,1.90
2018-04-30T13:43:17.100Z,1.40
2018-04-30T13:45:19.685Z,1.90
2018-04-30T13:47:22.316Z,2.20
2018-04-30T13:49:24.907Z,0.60
2018-04-30T13:51:27.508Z,2.70
2018-04-30T13:53:30.155Z,2.73
2018-04-30T13:55:32.756Z,2.70
2018-04-30T13:57:35.383Z,1.80
2018-04-30T13:59:37.968Z,1.33
2018-04-30T14:01:40.552Z,2.20
2018-04-30T14:03:43.233Z,0.80
2018-04-30T14:05:45.809Z,1.10
2018-04-30T14:07:48.408Z,1.23
2018-04-30T14:09:51.008Z,0.83
2018-04-30T14:11:54.382Z,1.63
2018-04-30T14:13:57.764Z,0.63
2018-04-30T14:16:00.435Z,4.17
2018-04-30T14:18:02.994Z,2.17
2018-04-30T14:20:05.571Z,0.43
2018-04-30T14:22:08.208Z,0.97
2018-04-30T14:24:10.815Z,2.93
2018-04-30T14:26:13.407Z,0.97
2018-04-30T14:28:16.820Z,0.93
2018-04-30T14:30:20.170Z,0.60
2018-04-30T14:32:22.757Z,1.53
2018-04-30T14:34:25.372Z,0.47
2018-04-30T14:36:28.011Z,1.63
2018-04-30T14:38:30.939Z,0.97
2018-04-30T14:40:33.535Z,0.50
2018-04-30T14:42:36.152Z,2.50
2018-04-30T14:44:38.782Z,1.60
2018-04-30T14:46:41.371Z,2.23
2018-04-30T14:48:44.108Z,1.23
2018-04-30T14:50:46.723Z,0.90
2018-04-30T14:52:49.300Z,0.57
2018-04-30T14:54:51.916Z,2.70
2018-04-30T14:56:55.271Z,1.37
2018-04-30T14:58:57.899Z,2.07
2018-04-30T15:01:00.476Z,1.53
2018-04-30T15:03:03.196Z,0.97
2018-04-30T15:05:05.831Z,1.73
2018-04-30T15:07:08.454Z,1.93
2018-04-30T15:09:11.075Z,0.90
2018-04-30T15:11:13.684Z,1.73
2018-04-30T15:15:25.861Z,0.70
2018-04-30T15:17:28.451Z,1.03
2018-04-30T15:19:31.100Z,3.33
2018-04-30T15:21:33.687Z,0.53
2018-04-30T15:23:36.276Z,2.20
2018-04-30T15:25:38.886Z,3.13
2018-04-30T15:27:41.524Z,0.73
2018-04-30T15:29:44.208Z,1.00
2018-04-30T15:31:46.813Z,0.87
2018-04-30T15:33:50.253Z,5.30
2018-04-30T15:35:52.884Z,1.43
2018-04-30T15:37:55.448Z,0.43
2018-04-30T15:39:58.119Z,2.20
2018-04-30T15:42:00.800Z,2.03
2018-04-30T15:44:03.772Z,0.97
2018-04-30T15:46:06.413Z,0.60
2018-04-30T15:48:09.008Z,3.23
2018-04-30T15:50:11.630Z,2.03
2018-04-30T15:52:14.984Z,0.87
2018-04-30T15:54:17.592Z,1.23
2018-04-30T15:56:20.199Z,2.53
2018-04-30T15:58:22.788Z,2.70
2018-04-30T16:00:25.416Z,1.53
2018-04-30T16:02:28.009Z,0.60
2018-04-30T16:04:31.400Z,0.60
2018-04-30T16:06:34.763Z,2.67
2018-04-30T16:08:37.397Z,1.17
2018-04-30T16:10:40.008Z,2.30
2018-04-30T16:12:42.608Z,1.03
2018-04-30T16:14:45.987Z,0.70
2018-04-30T16:16:48.580Z,1.07
2018-04-30T16:18:51.971Z,0.90
2018-04-30T16:20:55.399Z,1.40
2018-04-30T16:22:57.984Z,0.93
2018-04-30T16:25:00.608Z,1.17
2018-04-30T16:27:03.976Z,0.50
2018-04-30T16:29:06.560Z,2.20
2018-04-30T16:31:09.172Z,3.27
2018-04-30T16:33:11.769Z,2.07
2018-04-30T16:35:14.400Z,2.23
2018-04-30T16:37:17.819Z,1.13
2018-04-30T16:39:20.428Z,0.87
2018-04-30T16:41:23.044Z,1.03
2018-04-30T16:43:26.419Z,1.10
2018-04-30T16:45:29.038Z,1.87
2018-04-30T16:47:31.620Z,1.70
2018-04-30T16:49:34.307Z,0.93
2018-04-30T16:51:36.911Z,3.23
2018-04-30T16:53:39.536Z,2.77
2018-04-30T16:55:42.143Z,0.87
2018-04-30T16:57:44.745Z,2.00
2018-04-30T16:59:47.353Z,0.93
2018-04-30T17:01:49.968Z,0.90
2018-04-30T17:03:52.652Z,2.27
2018-04-30T17:05:55.980Z,3.70
2018-04-30T17:07:59.328Z,2.47
2018-04-30T17:10:02.284Z,4.73
2018-04-30T17:12:04.972Z,0.87
2018-04-30T17:14:07.566Z,1.70
2018-04-30T17:16:10.180Z,2.03
2018-04-30T17:18:13.536Z,2.30
2018-04-30T17:20:16.163Z,22.47
2018-04-30T17:22:18.760Z,0.97
2018-04-30T17:24:21.349Z,1.23
2018-04-30T17:26:23.972Z,1.27
2018-04-30T17:28:27.328Z,1.10
2018-04-30T17:30:30.108Z,6.23
2018-04-30T17:32:33.395Z,13.77
2018-04-30T17:34:35.978Z,3.67
2018-04-30T17:36:38.595Z,3.43
2018-04-30T17:38:41.180Z,3.43
2018-04-30T17:40:43.784Z,2.33
2018-04-30T17:42:46.394Z,2.33
2018-04-30T17:44:49.016Z,2.00
2018-04-30T17:46:51.650Z,1.97
2018-04-30T17:48:54.237Z,2.73
2018-04-30T17:50:56.887Z,2.10
2018-04-30T17:53:00.255Z,1.53
2018-04-30T17:55:02.868Z,1.57
2018-04-30T17:57:06.256Z,1.33
2018-04-30T17:59:09.599Z,3.97
2018-04-30T18:01:12.319Z,2.47
2018-04-30T18:03:15.661Z,2.10
2018-04-30T18:05:18.240Z,3.97
2018-04-30T18:07:20.856Z,3.70
2018-04-30T18:09:23.459Z,5.53
2018-04-30T18:11:26.072Z,2.43
2018-04-30T18:13:28.685Z,4.43
2018-04-30T18:15:32.059Z,2.93
2018-04-30T18:17:34.933Z,5.13
2018-04-30T18:19:37.516Z,3.83
2018-04-30T18:21:40.303Z,3.53
2018-04-30T18:23:42.895Z,3.43
2018-04-30T18:25:46.265Z,4.13
2018-04-30T18:27:48.962Z,1.00
2018-04-30T18:29:51.575Z,1.57
2018-04-30T18:31:54.189Z,1.50
2018-04-30T18:33:56.793Z,1.33
2018-04-30T18:35:59.391Z,2.43
2018-04-30T18:38:02.005Z,3.27
2018-04-30T18:40:04.581Z,2.97
2018-04-30T18:42:07.199Z,2.37
2018-04-30T18:44:10.618Z,1.20
2018-04-30T18:46:13.212Z,2.70
2018-04-30T18:48:15.858Z,3.43
2018-04-30T18:50:18.452Z,3.07
2018-04-30T18:52:21.118Z,4.00
2018-04-30T18:54:23.707Z,2.53
2018-04-30T18:56:26.416Z,5.53
2018-04-30T18:58:29.804Z,1.83
2018-04-30T19:00:33.170Z,2.67
2018-04-30T19:02:35.827Z,4.53
2018-04-30T19:04:38.430Z,3.03
2018-04-30T19:06:41.807Z,1.73
2018-04-30T19:08:44.522Z,2.40
2018-04-30T19:10:47.885Z,1.77
2018-04-30T19:12:50.569Z,2.73
2018-04-30T19:14:53.164Z,3.00
2018-04-30T19:16:56.519Z,3.87
2018-04-30T19:18:59.150Z,1.87
2018-04-30T19:21:01.754Z,2.90
2018-04-30T19:23:04.328Z,0.90
2018-04-30T19:25:06.937Z,2.33
2018-04-30T19:27:10.361Z,2.17
2018-04-30T19:29:12.955Z,1.33
2018-04-30T19:31:15.563Z,4.03
2018-04-30T19:33:18.183Z,2.43
2018-04-30T19:35:20.767Z,3.37
2018-04-30T19:37:23.387Z,3.53
2018-04-30T19:39:26.123Z,3.57
2018-04-30T19:41:28.712Z,2.10
2018-04-30T19:43:31.327Z,2.50
2018-04-30T19:45:33.984Z,1.67
2018-04-30T19:47:36.584Z,1.00
2018-04-30T19:49:39.222Z,1.00
2018-04-30T19:51:41.819Z,1.93
2018-04-30T19:53:44.421Z,2.90
2018-04-30T19:55:47.856Z,1.63
2018-04-30T19:57:50.466Z,1.40
2018-04-30T19:59:53.065Z,2.33
2018-04-30T20:01:56.424Z,1.30
2018-04-30T20:03:59.034Z,1.10
2018-04-30T20:06:02.397Z,5.00
2018-04-30T20:08:05.019Z,1.97
2018-04-30T20:10:07.653Z,3.33
2018-04-30T20:12:10.257Z,2.37
2018-04-30T20:14:12.887Z,2.27
2018-04-30T20:16:15.491Z,2.07
2018-04-30T20:18:18.855Z,4.43
2018-04-30T20:20:21.486Z,4.00
2018-04-30T20:22:24.064Z,3.37
2018-04-30T20:24:26.701Z,4.27
2018-04-30T20:26:29.285Z,4.67
2018-04-30T20:28:32.689Z,5.87
2018-04-30T20:30:35.281Z,7.57
2018-04-30T20:32:37.924Z,3.77
2018-04-30T20:34:41.313Z,3.47
2018-04-30T20:36:44.667Z,4.90
2018-04-30T20:38:48.048Z,4.20
2018-04-30T20:40:50.660Z,4.20
2018-04-30T20:42:53.259Z,4.07
2018-04-30T20:44:56.639Z,4.93
2018-04-30T20:46:59.988Z,3.57
2018-04-30T20:49:02.593Z,4.30
2018-04-30T20:51:05.192Z,4.03
2018-04-30T20:53:08.544Z,1.70
2018-04-30T20:55:11.162Z,3.00
2018-04-30T20:57:14.524Z,2.37
2018-04-30T20:59:17.133Z,1.60
2018-04-30T21:01:19.720Z,2.73
2018-04-30T21:03:22.327Z,2.37
2018-04-30T21:05:25.148Z,2.40
2018-04-30T21:07:28.492Z,2.23
2018-04-30T21:09:31.107Z,1.67
2018-04-30T21:11:34.472Z,3.63
2018-04-30T21:13:37.060Z,3.40
2018-04-30T21:15:39.884Z,1.50
2018-04-30T21:17:42.539Z,3.67
2018-04-30T21:19:45.096Z,5.00
2018-04-30T21:21:47.701Z,1.67
2018-04-30T21:23:50.301Z,4.80
2018-04-30T21:25:52.929Z,1.87
2018-04-30T21:27:56.287Z,4.90
2018-04-30T21:29:59.739Z,2.10
2018-04-30T21:32:02.383Z,1.60
2018-04-30T21:34:05.732Z,4.80
2018-04-30T21:36:08.339Z,2.07
2018-04-30T21:38:10.913Z,3.87
2018-04-30T21:40:13.581Z,1.27
2018-04-30T21:42:16.151Z,4.03
2018-04-30T21:44:18.728Z,2.13
2018-04-30T21:46:21.347Z,3.03
2018-04-30T21:48:23.927Z,2.43
2018-04-30T21:50:26.928Z,2.33
2018-04-30T21:52:30.276Z,2.70
2018-04-30T21:54:33.621Z,1.23
2018-04-30T21:56:36.246Z,1.40
2018-04-30T21:58:39.611Z,3.43
2018-04-30T22:00:42.282Z,1.57
2018-04-30T22:02:44.892Z,5.90
2018-04-30T22:04:48.247Z,1.73
2018-04-30T22:06:50.869Z,2.43
2018-04-30T22:08:53.484Z,1.43
2018-04-30T22:10:56.080Z,3.03
2018-04-30T22:12:58.676Z,1.20
2018-04-30T22:15:02.033Z,1.80
2018-04-30T22:17:04.642Z,3.83
2018-04-30T22:19:08.001Z,6.03
2018-04-30T22:21:10.621Z,1.70
2018-04-30T22:23:13.205Z,2.00
2018-04-30T22:25:15.832Z,3.17
2018-04-30T22:27:18.441Z,2.73
2018-04-30T22:29:21.804Z,2.77
2018-04-30T22:31:24.432Z,1.73
2018-04-30T22:33:27.019Z,4.00
2018-04-30T22:35:30.416Z,3.43
2018-04-30T22:37:33.005Z,1.53
2018-04-30T22:39:35.579Z,1.97
2018-04-30T22:41:38.212Z,1.20
2018-04-30T22:43:40.792Z,1.20
2018-04-30T22:45:43.395Z,1.60
2018-04-30T22:47:46.746Z,1.60
2018-04-30T22:49:49.316Z,1.37
2018-04-30T22:51:51.976Z,1.33
2018-04-30T22:53:55.356Z,1.80
2018-04-30T22:55:57.977Z,1.40
2018-04-30T22:58:00.553Z,4.27
2018-04-30T23:00:03.147Z,3.90
2018-04-30T23:02:05.795Z,1.00
2018-04-30T23:04:08.376Z,1.30
2018-04-30T23:06:10.981Z,1.40
2018-04-30T23:08:13.573Z,5.07
2018-04-30T23:10:16.158Z,1.33
2018-04-30T23:12:19.521Z,3.47
2018-04-30T23:14:22.135Z,1.37
2018-04-30T23:16:25.524Z,2.03
2018-04-30T23:18:28.868Z,1.53
2018-04-30T23:20:31.448Z,2.00
2018-04-30T23:22:37.935Z,1.00
2018-04-30T23:24:40.521Z,2.10
2018-04-30T23:26:43.916Z,1.43
2018-04-30T23:28:47.263Z,3.40
2018-04-30T23:30:49.876Z,5.67
2018-04-30T23:32:53.237Z,2.17
2018-04-30T23:34:56.598Z,2.83
2018-04-30T23:36:59.195Z,1.43
2018-04-30T23:39:01.803Z,1.37
2018-04-30T23:41:04.420Z,2.03
2018-04-30T23:43:06.991Z,2.80
2018-04-30T23:45:09.595Z,2.07
2018-04-30T23:47:12.200Z,1.87
2018-04-30T23:49:14.775Z,1.30
2018-04-30T23:51:17.383Z,2.30
2018-04-30T23:53:19.974Z,1.70
2018-04-30T23:55:22.574Z,1.40
2018-04-30T23:57:25.183Z,1.47
2018-04-30T23:59:28.531Z,3.53
